Terminal Aerodrome Forecast
Issued by NWS

Home | Current Version | Previous Version | Text Only | Print | Product List | Glossary On
Versions: 1 2 3 4 5 6 7 8 9 10 11 12 13 14 15 16 17 18 19 20 21
000
FTUS46 KSEW 261733
TAFOLM
TAF
KOLM 261733Z 2618/2718 17008KT 5SM -RA BR SCT025 OVC040
      TEMPO 2618/2622 3SM -RA BKN020 OVC035
     FM262200 17008KT 3SM -RA BR BKN020 OVC035
     FM270000 20010KT 6SM -SHRA BKN025 OVC040
     FM270600 20006KT P6SM VCSH BKN030 BKN045
     FM271200 21006KT P6SM -SHRA BKN025 BKN040=

USA.gov is the U.S. government's official web portal to all federal, state and local government web resources and services.